createdAt,value
2022-08-05T00:01:48.989Z,60.46
2022-08-05T00:04:19.380Z,60.57
2022-08-05T00:06:51.553Z,60.61
2022-08-05T00:09:19.562Z,60.69
2022-08-05T00:11:48.419Z,60.74
2022-08-05T00:14:17.135Z,60.69
2022-08-05T00:16:53.410Z,61.10
2022-08-05T00:19:15.391Z,61.21
2022-08-05T00:21:43.127Z,61.32
2022-08-05T00:24:16.197Z,61.43
2022-08-05T00:26:46.703Z,61.54
2022-08-05T00:29:10.256Z,61.63
2022-08-05T00:31:54.474Z,61.42
2022-08-05T00:34:54.217Z,61.32
2022-08-05T00:37:09.801Z,61.06
2022-08-05T00:39:07.174Z,60.90
2022-08-05T00:41:52.116Z,60.83
2022-08-05T00:44:06.349Z,60.85
2022-08-05T00:46:42.769Z,60.81
2022-08-05T00:49:03.924Z,60.78
2022-08-05T00:51:51.999Z,60.87
2022-08-05T00:54:02.956Z,60.87
2022-08-05T00:56:30.722Z,60.90
2022-08-05T00:58:58.394Z,60.95
2022-08-05T01:01:48.732Z,61.03
2022-08-05T01:03:57.171Z,61.03
2022-08-05T01:06:32.442Z,61.06
2022-08-05T01:08:54.493Z,61.31
2022-08-05T01:11:37.172Z,61.37
2022-08-05T01:14:27.898Z,61.35
2022-08-05T01:17:23.111Z,61.49
2022-08-05T01:20:15.459Z,61.64
2022-08-05T01:23:22.763Z,61.87
2022-08-05T01:26:17.822Z,61.89
2022-08-05T01:28:52.194Z,62.14
2022-08-05T01:31:54.598Z,62.27
2022-08-05T01:34:36.475Z,62.57
2022-08-05T01:37:28.538Z,62.67
2022-08-05T01:39:59.167Z,62.73
2022-08-05T01:42:29.705Z,62.89
2022-08-05T01:45:02.420Z,63.00
2022-08-05T01:47:39.426Z,63.22
2022-08-05T01:50:06.392Z,63.42
2022-08-05T01:52:38.142Z,63.72
2022-08-05T01:55:09.757Z,63.78
2022-08-05T01:58:29.163Z,63.87
2022-08-05T02:00:12.389Z,63.84
2022-08-05T02:02:56.276Z,63.38
2022-08-05T02:05:28.615Z,63.64
2022-08-05T02:08:01.735Z,63.47
2022-08-05T02:10:32.339Z,63.28
2022-08-05T02:13:15.988Z,63.19
2022-08-05T02:15:48.969Z,63.05
2022-08-05T02:18:35.542Z,62.94
2022-08-05T02:21:14.980Z,62.94
2022-08-05T02:23:48.502Z,62.98
2022-08-05T02:26:27.832Z,62.98
2022-08-05T02:28:58.267Z,62.96
2022-08-05T02:31:34.777Z,63.03
2022-08-05T02:34:11.946Z,63.13
2022-08-05T02:37:04.423Z,63.13
2022-08-05T02:39:36.621Z,63.17
2022-08-05T02:42:08.757Z,63.21
2022-08-05T02:44:39.681Z,63.37
2022-08-05T02:47:09.957Z,63.47
2022-08-05T02:49:44.040Z,63.53
2022-08-05T02:52:29.849Z,63.54
2022-08-05T02:54:52.044Z,63.59
2022-08-05T02:58:10.667Z,63.79
2022-08-05T03:00:01.611Z,63.64
2022-08-05T03:02:38.458Z,63.66
2022-08-05T03:05:11.609Z,63.67
2022-08-05T03:08:01.617Z,63.61
2022-08-05T03:10:24.604Z,63.69
2022-08-05T03:12:47.058Z,63.88
2022-08-05T03:15:16.894Z,64.05
2022-08-05T03:17:44.953Z,64.19
2022-08-05T03:20:13.498Z,64.20
2022-08-05T03:22:44.107Z,64.38
2022-08-05T03:25:32.956Z,64.46
2022-08-05T03:27:59.291Z,64.56
2022-08-05T03:30:11.325Z,64.45
2022-08-05T03:32:39.226Z,64.41
2022-08-05T03:35:08.838Z,64.33
2022-08-05T03:37:46.438Z,64.29
2022-08-05T03:40:11.802Z,64.28
2022-08-05T03:42:51.473Z,64.21
2022-08-05T03:45:21.601Z,64.12
2022-08-05T03:47:41.337Z,63.96
2022-08-05T03:50:10.225Z,63.85
2022-08-05T03:55:50.745Z,63.69
2022-08-05T03:56:10.130Z,63.62
2022-08-05T03:58:29.067Z,63.55
2022-08-05T04:00:56.843Z,63.51
2022-08-05T04:03:28.304Z,63.66
2022-08-05T04:05:57.989Z,63.64
2022-08-05T04:08:34.953Z,63.73
2022-08-05T04:11:01.678Z,64.12
2022-08-05T04:13:50.544Z,64.18
2022-08-05T04:16:04.590Z,64.10
2022-08-05T04:18:31.702Z,64.35
2022-08-05T04:20:59.510Z,64.43
2022-08-05T04:23:57.318Z,64.74
2022-08-05T04:26:00.900Z,64.72
2022-08-05T04:28:31.756Z,64.96
2022-08-05T04:30:58.800Z,65.13
2022-08-05T04:34:17.041Z,65.22
2022-08-05T04:36:11.219Z,65.13
2022-08-05T04:38:39.186Z,65.03
2022-08-05T04:40:58.199Z,64.84
2022-08-05T04:43:26.291Z,64.61
2022-08-05T04:45:55.791Z,64.42
2022-08-05T04:48:27.507Z,64.32
2022-08-05T04:51:01.585Z,64.30
2022-08-05T04:53:23.747Z,64.27
2022-08-05T04:56:33.365Z,64.20
2022-08-05T04:58:21.685Z,63.99
2022-08-05T05:00:50.871Z,63.92
2022-08-05T05:03:18.708Z,63.80
2022-08-05T05:06:40.468Z,63.59
2022-08-05T05:08:26.719Z,63.46
2022-08-05T05:10:56.275Z,63.31
2022-08-05T05:13:18.648Z,63.32
2022-08-05T05:15:59.437Z,63.29
2022-08-05T05:18:31.054Z,63.13
2022-08-05T05:20:47.859Z,62.91
2022-08-05T05:23:19.530Z,62.73
2022-08-05T05:25:47.768Z,62.60
2022-08-05T05:28:15.601Z,62.51
2022-08-05T05:30:43.502Z,62.61
2022-08-05T05:33:16.896Z,62.70
2022-08-05T05:35:42.779Z,62.70
2022-08-05T05:38:13.178Z,62.86
2022-08-05T05:40:48.302Z,63.00
2022-08-05T05:43:10.897Z,63.17
2022-08-05T05:45:48.146Z,63.23
2022-08-05T05:48:10.065Z,63.25
2022-08-05T05:50:41.183Z,63.35
2022-08-05T05:53:21.526Z,63.12
2022-08-05T05:55:52.345Z,62.81
2022-08-05T05:58:10.398Z,62.30
2022-08-05T06:00:38.200Z,61.89
2022-08-05T06:03:40.224Z,61.57
2022-08-05T06:05:35.912Z,60.85
2022-08-05T06:08:03.989Z,60.53
2022-08-05T06:10:36.336Z,60.17
2022-08-05T06:13:03.432Z,60.07
2022-08-05T06:16:31.066Z,59.87
2022-08-05T06:18:00.662Z,59.61
2022-08-05T06:20:28.341Z,59.65
2022-08-05T06:22:56.435Z,59.55
2022-08-05T06:26:13.765Z,59.56
2022-08-05T06:28:10.872Z,59.49
2022-08-05T06:30:27.402Z,59.29
2022-08-05T06:32:56.018Z,58.57
2022-08-05T06:36:07.601Z,58.49
2022-08-05T06:37:56.390Z,58.02
2022-08-05T06:40:28.031Z,57.71
2022-08-05T06:42:52.845Z,57.06
2022-08-05T06:46:02.972Z,57.03
2022-08-05T06:48:36.927Z,57.24
2022-08-05T06:50:21.284Z,56.95
2022-08-05T06:52:58.748Z,56.88
2022-08-05T06:55:18.460Z,56.13
2022-08-05T06:57:57.534Z,55.56
2022-08-05T07:00:22.165Z,55.06
2022-08-05T07:02:48.040Z,54.75
2022-08-05T07:05:18.832Z,54.25
2022-08-05T07:07:48.471Z,54.03
2022-08-05T07:10:16.477Z,53.84
2022-08-05T07:13:03.838Z,53.57
2022-08-05T07:16:01.104Z,53.11
2022-08-05T07:18:26.975Z,52.75
2022-08-05T07:20:51.073Z,51.90
2022-08-05T07:23:26.465Z,51.81
2022-08-05T07:25:55.001Z,51.58
2022-08-05T07:28:17.664Z,51.06
2022-08-05T07:30:50.327Z,50.78
2022-08-05T07:33:16.036Z,50.16
2022-08-05T07:36:01.815Z,49.34
2022-08-05T07:38:26.453Z,50.13
2022-08-05T07:40:47.182Z,49.58
2022-08-05T07:43:20.617Z,48.37
2022-08-05T07:45:57.193Z,47.76
2022-08-05T07:48:15.805Z,48.11
2022-08-05T07:50:45.244Z,48.04
2022-08-05T07:53:13.342Z,48.48
2022-08-05T07:56:04.731Z,48.78
2022-08-05T07:58:17.690Z,48.24
2022-08-05T08:00:40.387Z,47.60
2022-08-05T08:03:15.269Z,47.01
2022-08-05T08:05:47.424Z,47.28
2022-08-05T08:08:13.551Z,46.54
2022-08-05T08:10:42.989Z,46.71
2022-08-05T08:13:12.491Z,45.97
2022-08-05T08:16:49.872Z,45.95
2022-08-05T08:18:14.305Z,45.75
2022-08-05T08:21:00.126Z,45.21
2022-08-05T08:23:59.828Z,45.69
2022-08-05T08:26:00.031Z,45.73
2022-08-05T08:28:17.961Z,45.83
2022-08-05T08:30:47.732Z,44.83
2022-08-05T08:33:13.594Z,44.32
2022-08-05T08:35:41.414Z,43.96
2022-08-05T08:38:16.249Z,43.93
2022-08-05T08:40:39.825Z,43.27
2022-08-05T08:44:57.933Z,43.10
2022-08-05T08:45:41.530Z,43.20
2022-08-05T08:48:36.170Z,43.53
2022-08-05T08:51:03.272Z,43.03
2022-08-05T08:53:17.067Z,42.54
2022-08-05T08:56:04.279Z,42.35
2022-08-05T08:58:16.607Z,41.69
2022-08-05T09:00:44.972Z,41.09
2022-08-05T09:03:16.309Z,41.52
2022-08-05T09:06:07.624Z,40.95
2022-08-05T09:08:13.271Z,40.55
2022-08-05T09:10:46.854Z,38.80
2022-08-05T09:13:15.098Z,39.80
2022-08-05T09:15:43.773Z,39.43
2022-08-05T09:18:13.480Z,38.59
2022-08-05T09:20:43.898Z,38.22
2022-08-05T09:23:19.646Z,39.27
2022-08-05T09:26:02.468Z,39.07
2022-08-05T09:28:32.641Z,38.90
2022-08-05T09:31:44.208Z,38.74
2022-08-05T09:33:54.307Z,36.77
2022-08-05T09:36:27.853Z,36.98
2022-08-05T09:39:16.470Z,37.91
2022-08-05T09:42:03.149Z,38.34
2022-08-05T09:44:50.687Z,36.81
2022-08-05T09:47:23.444Z,37.60
2022-08-05T09:50:02.255Z,35.63
2022-08-05T09:52:32.750Z,37.49
2022-08-05T09:55:57.261Z,36.26
2022-08-05T09:57:47.148Z,36.44
2022-08-05T10:00:19.699Z,35.93
2022-08-05T10:02:53.748Z,36.42
2022-08-05T10:05:26.802Z,36.75
2022-08-05T10:08:34.817Z,35.19
2022-08-05T10:10:48.285Z,35.43
2022-08-05T10:13:47.199Z,36.38
2022-08-05T10:16:29.619Z,36.14
2022-08-05T10:18:58.514Z,36.16
2022-08-05T10:21:27.017Z,36.43
2022-08-05T10:24:00.417Z,35.19
2022-08-05T10:26:32.629Z,35.75
2022-08-05T10:28:56.509Z,34.87
2022-08-05T10:32:53.125Z,34.81
2022-08-05T10:33:54.440Z,34.47
2022-08-05T10:36:23.738Z,35.22
2022-08-05T10:38:56.693Z,35.02
2022-08-05T10:41:45.209Z,33.95
2022-08-05T10:44:10.042Z,33.61
2022-08-05T10:46:54.761Z,33.70
2022-08-05T10:49:32.868Z,34.31
2022-08-05T10:52:02.308Z,34.61
2022-08-05T10:54:56.672Z,34.24
2022-08-05T10:57:29.693Z,33.68
2022-08-05T11:00:20.562Z,32.58
2022-08-05T11:03:23.239Z,32.05
2022-08-05T11:05:39.567Z,31.87
2022-08-05T11:08:36.754Z,32.49
2022-08-05T11:10:50.402Z,31.91
2022-08-05T11:13:16.651Z,33.16
2022-08-05T11:16:00.098Z,33.51
2022-08-05T11:18:29.981Z,33.17
2022-08-05T11:20:59.018Z,31.91
2022-08-05T11:24:05.409Z,32.07
2022-08-05T11:26:28.646Z,32.92
2022-08-05T11:28:55.098Z,33.04
2022-08-05T11:31:57.004Z,32.80
2022-08-05T11:34:06.346Z,32.14
2022-08-05T11:36:52.859Z,33.07
2022-08-05T11:39:55.529Z,32.83
2022-08-05T11:42:27.981Z,31.87
2022-08-05T11:44:59.445Z,32.84
2022-08-05T11:47:49.602Z,33.13
2022-08-05T11:50:00.085Z,31.44
2022-08-05T11:52:31.175Z,31.30
2022-08-05T11:55:07.436Z,31.04
2022-08-05T11:58:08.002Z,31.75
2022-08-05T12:00:00.787Z,31.56
2022-08-05T12:02:36.057Z,31.59
2022-08-05T12:05:08.262Z,31.83
2022-08-05T12:08:07.567Z,31.80
2022-08-05T12:10:09.647Z,31.16
2022-08-05T12:12:38.290Z,31.16
2022-08-05T12:15:20.308Z,30.22
2022-08-05T12:18:04.164Z,29.92
2022-08-05T12:20:28.673Z,30.49
2022-08-05T12:22:49.111Z,30.17
2022-08-05T12:25:18.456Z,29.75
2022-08-05T12:27:53.168Z,28.79
2022-08-05T12:30:17.497Z,29.75
2022-08-05T12:32:50.513Z,30.15
2022-08-05T12:35:21.897Z,30.91
2022-08-05T12:37:48.936Z,30.50
2022-08-05T12:40:26.779Z,30.00
2022-08-05T12:42:51.294Z,29.53
2022-08-05T12:45:19.161Z,29.73
2022-08-05T12:48:01.372Z,30.14
2022-08-05T12:50:19.825Z,30.01
2022-08-05T12:52:58.559Z,29.11
2022-08-05T12:55:32.468Z,29.79
2022-08-05T12:58:52.341Z,29.58
2022-08-05T13:02:03.462Z,29.69
2022-08-05T13:03:02.567Z,29.78
2022-08-05T13:05:37.335Z,29.67
2022-08-05T13:08:04.970Z,29.33
2022-08-05T13:10:39.620Z,29.45
2022-08-05T13:13:09.814Z,28.99
2022-08-05T13:15:49.169Z,28.76
2022-08-05T13:18:10.242Z,28.99
2022-08-05T13:20:40.381Z,29.10
2022-08-05T13:23:07.593Z,29.48
2022-08-05T13:25:52.253Z,28.70
2022-08-05T13:28:06.232Z,28.86
2022-08-05T13:30:38.949Z,29.01
2022-08-05T13:33:04.282Z,28.71
2022-08-05T13:35:43.008Z,29.17
2022-08-05T13:38:05.038Z,29.00
2022-08-05T13:40:47.977Z,29.27
2022-08-05T13:43:00.974Z,29.68
2022-08-05T13:45:31.026Z,29.03
2022-08-05T13:48:09.170Z,28.66
2022-08-05T13:50:27.703Z,29.46
2022-08-05T13:52:55.466Z,29.06
2022-08-05T13:55:41.635Z,29.29
2022-08-05T13:57:54.505Z,27.93
2022-08-05T14:00:26.933Z,28.93
2022-08-05T14:02:53.085Z,29.30
2022-08-05T14:05:48.269Z,29.34
2022-08-05T14:07:59.920Z,28.78
2022-08-05T14:10:28.496Z,28.97
2022-08-05T14:12:54.646Z,29.58
2022-08-05T14:16:05.754Z,28.93
2022-08-05T14:17:51.692Z,29.40
2022-08-05T14:20:21.417Z,29.23
2022-08-05T14:22:50.944Z,27.72
2022-08-05T14:25:22.234Z,29.08
2022-08-05T14:27:50.813Z,29.34
2022-08-05T14:30:20.158Z,29.40
2022-08-05T14:32:49.012Z,29.60
2022-08-05T14:35:20.669Z,29.50
2022-08-05T14:37:49.016Z,29.26
2022-08-05T14:40:16.791Z,27.70
2022-08-05T14:42:45.095Z,28.64
2022-08-05T14:45:13.407Z,28.55
2022-08-05T14:48:03.210Z,28.30
2022-08-05T14:50:18.480Z,27.17
2022-08-05T14:52:52.425Z,27.95
2022-08-05T14:55:22.279Z,28.67
2022-08-05T14:57:54.026Z,28.46
2022-08-05T15:00:20.732Z,28.07
2022-08-05T15:02:51.907Z,27.79
2022-08-05T15:05:19.737Z,28.27
2022-08-05T15:08:08.587Z,28.97
2022-08-05T15:10:17.576Z,28.13
2022-08-05T15:13:00.501Z,29.02
2022-08-05T15:15:17.311Z,28.87
2022-08-05T15:17:53.180Z,29.34
2022-08-05T15:20:19.294Z,28.67
2022-08-05T15:22:54.207Z,28.73
2022-08-05T15:25:23.461Z,28.86
2022-08-05T15:27:52.030Z,28.82
2022-08-05T15:30:16.817Z,29.28
2022-08-05T15:32:44.777Z,29.15
2022-08-05T15:35:13.623Z,29.43
2022-08-05T15:38:33.409Z,28.78
2022-08-05T15:41:02.518Z,29.02
2022-08-05T15:42:55.653Z,28.75
2022-08-05T15:45:12.505Z,29.19
2022-08-05T15:47:44.247Z,28.81
2022-08-05T15:50:15.096Z,29.18
2022-08-05T15:52:52.694Z,29.15
2022-08-05T15:55:16.064Z,29.33
2022-08-05T15:57:45.139Z,29.40
2022-08-05T16:00:16.762Z,29.59
2022-08-05T16:02:43.349Z,29.71
2022-08-05T16:05:11.569Z,29.22
2022-08-05T16:07:39.364Z,29.41
2022-08-05T16:10:11.676Z,28.89
2022-08-05T16:12:39.453Z,29.33
2022-08-05T16:15:07.920Z,29.22
2022-08-05T16:17:37.290Z,29.73
2022-08-05T16:20:12.060Z,29.49
2022-08-05T16:22:37.015Z,29.70
2022-08-05T16:25:08.001Z,30.09
2022-08-05T16:28:00.016Z,30.38
2022-08-05T16:30:08.398Z,30.64
2022-08-05T16:32:37.942Z,30.86
2022-08-05T16:35:07.136Z,31.08
2022-08-05T16:38:16.076Z,31.14
2022-08-05T16:40:13.467Z,31.28
2022-08-05T16:42:37.805Z,31.32
2022-08-05T16:46:05.303Z,31.44
2022-08-05T16:47:48.364Z,31.42
2022-08-05T16:50:10.688Z,31.56
2022-08-05T16:52:38.430Z,31.93
2022-08-05T16:55:08.484Z,31.94
2022-08-05T16:57:53.110Z,32.10
2022-08-05T17:00:10.603Z,32.42
2022-08-05T17:02:38.462Z,32.74
2022-08-05T17:05:08.263Z,32.98
2022-08-05T17:07:43.569Z,33.22
2022-08-05T17:10:06.659Z,33.60
2022-08-05T17:12:50.253Z,34.01
2022-08-05T17:15:05.019Z,34.13
2022-08-05T17:17:42.363Z,33.89
2022-08-05T17:20:08.119Z,33.94
2022-08-05T17:22:37.629Z,34.16
2022-08-05T17:25:22.021Z,34.46
2022-08-05T17:27:35.497Z,35.66
2022-08-05T17:30:11.902Z,35.73
2022-08-05T17:32:36.769Z,36.30
2022-08-05T17:35:05.240Z,36.85
2022-08-05T17:37:40.788Z,37.31
2022-08-05T17:40:10.858Z,37.08
2022-08-05T17:42:46.602Z,37.11
2022-08-05T17:45:20.612Z,37.96
2022-08-05T17:47:41.173Z,38.79
2022-08-05T17:50:11.352Z,39.25
2022-08-05T17:52:52.973Z,39.74
2022-08-05T17:55:11.478Z,40.21
2022-08-05T17:57:40.984Z,40.55
2022-08-05T18:00:12.397Z,41.02
2022-08-05T18:02:41.952Z,41.75
2022-08-05T18:05:10.989Z,42.34
2022-08-05T18:07:41.583Z,42.70
2022-08-05T18:10:20.409Z,43.02
2022-08-05T18:12:41.550Z,43.39
2022-08-05T18:15:10.384Z,43.62
2022-08-05T18:18:00.353Z,43.91
2022-08-05T18:20:14.047Z,44.44
2022-08-05T18:22:54.268Z,44.84
2022-08-05T18:25:10.640Z,45.11
2022-08-05T18:27:40.090Z,45.65
2022-08-05T18:30:10.469Z,46.02
2022-08-05T18:32:39.833Z,45.98
2022-08-05T18:35:11.501Z,46.08
2022-08-05T18:37:40.058Z,46.37
2022-08-05T18:40:34.169Z,46.66
2022-08-05T18:42:41.162Z,46.63
2022-08-05T18:45:10.454Z,46.70
2022-08-05T18:47:38.158Z,46.84
2022-08-05T18:50:42.253Z,46.75
2022-08-05T18:52:54.763Z,46.84
2022-08-05T18:55:22.580Z,46.95
2022-08-05T18:57:53.102Z,47.56
2022-08-05T19:00:28.539Z,48.36
2022-08-05T19:02:52.464Z,48.66
2022-08-05T19:06:11.284Z,49.06
2022-08-05T19:07:52.097Z,49.31
2022-08-05T19:10:26.525Z,49.49
2022-08-05T19:12:50.836Z,49.78
2022-08-05T19:15:56.852Z,49.87
2022-08-05T19:18:09.762Z,49.95
2022-08-05T19:20:18.006Z,50.08
2022-08-05T19:22:45.515Z,50.10
2022-08-05T19:25:21.686Z,50.23
2022-08-05T19:27:43.229Z,50.38
2022-08-05T19:30:12.254Z,50.57
2022-08-05T19:32:41.273Z,50.69
2022-08-05T19:35:09.943Z,50.79
2022-08-05T19:37:47.315Z,50.84
2022-08-05T19:40:10.142Z,51.10
2022-08-05T19:42:38.872Z,51.26
2022-08-05T19:45:08.810Z,51.46
2022-08-05T19:47:39.753Z,51.61
2022-08-05T19:50:11.928Z,51.92
2022-08-05T19:52:37.636Z,52.09
2022-08-05T19:55:08.691Z,52.21
2022-08-05T19:57:47.296Z,52.38
2022-08-05T20:00:07.159Z,52.32
2022-08-05T20:02:36.697Z,52.41
2022-08-05T20:05:05.259Z,52.60
2022-08-05T20:07:46.022Z,52.75
2022-08-05T20:10:11.613Z,52.75
2022-08-05T20:12:35.698Z,52.78
2022-08-05T20:15:05.373Z,52.81
2022-08-05T20:17:36.409Z,52.86
2022-08-05T20:20:09.534Z,53.00
2022-08-05T20:22:36.552Z,53.07
2022-08-05T20:25:05.112Z,53.19
2022-08-05T20:27:41.564Z,53.32
2022-08-05T20:30:02.454Z,53.55
2022-08-05T20:32:30.461Z,53.70
2022-08-05T20:34:59.854Z,53.77
2022-08-05T20:38:05.039Z,53.91
2022-08-05T20:39:58.245Z,54.01
2022-08-05T20:42:26.287Z,54.22
2022-08-05T20:44:55.371Z,54.36
2022-08-05T20:47:31.819Z,54.50
2022-08-05T20:49:53.943Z,54.56
2022-08-05T20:52:24.054Z,54.65
2022-08-05T20:54:59.680Z,54.62
2022-08-05T20:57:24.716Z,54.69
2022-08-05T21:00:20.762Z,54.71
2022-08-05T21:02:20.676Z,54.81
2022-08-05T21:04:50.126Z,54.94
2022-08-05T21:07:18.296Z,54.98
2022-08-05T21:09:50.256Z,55.14
2022-08-05T21:12:17.033Z,55.30
2022-08-05T21:14:45.502Z,55.41
2022-08-05T21:17:15.134Z,55.51
2022-08-05T21:19:47.989Z,55.61
2022-08-05T21:22:12.723Z,55.68
2022-08-05T21:24:42.617Z,55.84
2022-08-05T21:27:11.277Z,55.93
2022-08-05T21:29:40.571Z,56.05
2022-08-05T21:32:08.499Z,56.14
2022-08-05T21:34:36.343Z,56.25
2022-08-05T21:37:04.497Z,56.30
2022-08-05T21:39:34.495Z,56.43
2022-08-05T21:42:02.242Z,56.57
2022-08-05T21:44:31.807Z,56.68
2022-08-05T21:47:00.889Z,56.83
2022-08-05T21:49:59.336Z,57.00
2022-08-05T21:52:21.457Z,57.08
2022-08-05T21:54:31.089Z,57.25
2022-08-05T21:57:15.388Z,57.44
2022-08-05T21:59:33.739Z,57.60
2022-08-05T22:01:56.621Z,57.77
2022-08-05T22:04:25.495Z,57.94
2022-08-05T22:06:53.629Z,58.17
2022-08-05T22:09:21.774Z,58.37
2022-08-05T22:11:50.013Z,58.44
2022-08-05T22:14:35.028Z,58.46
2022-08-05T22:16:51.170Z,58.55
2022-08-05T22:20:01.701Z,58.59
2022-08-05T22:21:47.346Z,58.71
2022-08-05T22:24:40.533Z,58.80
2022-08-05T22:27:23.619Z,58.76
2022-08-05T22:29:54.137Z,58.69
2022-08-05T22:32:21.147Z,58.80
2022-08-05T22:34:50.656Z,58.80
2022-08-05T22:37:18.228Z,58.81
2022-08-05T22:39:50.531Z,58.83
2022-08-05T22:42:25.326Z,58.86
2022-08-05T22:44:53.642Z,58.89
2022-08-05T22:47:14.765Z,58.95
2022-08-05T22:50:19.259Z,59.01
2022-08-05T22:52:30.418Z,59.07
2022-08-05T22:54:48.936Z,59.12
2022-08-05T22:57:16.725Z,59.14
2022-08-05T22:59:53.598Z,59.31
2022-08-05T23:02:16.796Z,59.48
2022-08-05T23:04:51.279Z,59.55
2022-08-05T23:07:14.556Z,59.56
2022-08-05T23:09:57.951Z,59.57
2022-08-05T23:12:12.801Z,59.37
2022-08-05T23:14:40.496Z,59.13
2022-08-05T23:17:34.697Z,58.92
2022-08-05T23:19:58.527Z,58.62
2022-08-05T23:22:28.149Z,58.37
2022-08-05T23:24:55.865Z,58.14
2022-08-05T23:27:24.039Z,57.93
2022-08-05T23:29:51.998Z,57.79
2022-08-05T23:32:22.792Z,57.67
2022-08-05T23:34:49.671Z,57.67
2022-08-05T23:37:18.572Z,57.67
2022-08-05T23:39:54.042Z,57.59
2022-08-05T23:42:15.880Z,57.45
2022-08-05T23:44:45.432Z,57.25
2022-08-05T23:47:15.916Z,57.14
2022-08-05T23:49:45.862Z,56.96
2022-08-05T23:52:26.063Z,56.91
2022-08-05T23:55:08.981Z,56.88
2022-08-05T23:57:36.964Z,56.77
